createdAt,value
2022-10-02T00:02:23.281Z,99676.53
2022-10-02T00:04:49.793Z,99681.31
2022-10-02T00:07:17.004Z,99677.38
2022-10-02T00:09:43.348Z,99680.19
2022-10-02T00:12:09.749Z,99673.06
2022-10-02T00:14:36.083Z,99682.97
2022-10-02T00:17:02.412Z,99685.75
2022-10-02T00:19:28.747Z,99684.19
2022-10-02T00:21:55.089Z,99686.59
2022-10-02T00:24:21.410Z,99693.41
2022-10-02T00:26:47.762Z,99694.59
2022-10-02T00:29:14.974Z,99693.41
2022-10-02T00:31:41.342Z,99687.06
2022-10-02T00:34:09.087Z,99689.47
2022-10-02T00:36:36.568Z,99693.06
2022-10-02T00:39:03.116Z,99692.63
2022-10-02T00:41:29.432Z,99693.41
2022-10-02T00:43:55.772Z,99694.59
2022-10-02T00:46:22.117Z,99692.97
2022-10-02T00:48:48.489Z,99693.41
2022-10-02T00:51:15.685Z,99699.75
2022-10-02T00:53:41.998Z,99702.09
2022-10-02T00:56:08.355Z,99700.16
2022-10-02T00:58:34.687Z,99698.19
2022-10-02T01:01:01.073Z,99697.81
2022-10-02T01:03:27.437Z,99698.97
2022-10-02T01:05:53.810Z,99700.59
2022-10-02T01:08:20.985Z,99699.41
2022-10-02T01:10:50.052Z,99704.97
2022-10-02T01:13:16.389Z,99705.41
2022-10-02T01:15:42.722Z,99701.41
2022-10-02T01:18:09.926Z,99702.59
2022-10-02T01:20:36.254Z,99708.59
2022-10-02T01:23:02.581Z,99705.81
2022-10-02T01:25:28.913Z,99705.81
2022-10-02T01:27:55.296Z,99707.81
2022-10-02T01:30:21.651Z,99707.41
2022-10-02T01:32:47.994Z,99714.97
2022-10-02T01:35:15.183Z,99712.19
2022-10-02T01:37:41.510Z,99713.41
2022-10-02T01:40:07.828Z,99718.97
2022-10-02T01:42:34.292Z,99721.75
2022-10-02T01:45:00.623Z,99717.38
2022-10-02T01:47:26.954Z,99717.38
2022-10-02T01:49:53.287Z,99718.63
2022-10-02T01:52:19.598Z,99721.03
2022-10-02T01:54:45.940Z,99724.19
2022-10-02T01:57:13.116Z,99722.25
2022-10-02T01:59:39.442Z,99720.75
2022-10-02T02:02:05.851Z,99732.22
2022-10-02T02:04:32.419Z,99734.16
2022-10-02T02:06:58.743Z,99744.19
2022-10-02T02:09:25.063Z,99746.97
2022-10-02T02:11:51.416Z,99747.75
2022-10-02T02:14:18.629Z,99752.94
2022-10-02T02:16:45.041Z,99750.16
2022-10-02T02:19:11.564Z,99752.59
2022-10-02T02:21:37.884Z,99753.72
2022-10-02T02:24:04.248Z,99757.28
2022-10-02T02:26:30.733Z,99755.75
2022-10-02T02:28:57.059Z,99754.97
2022-10-02T02:31:23.423Z,99756.16
2022-10-02T02:33:49.784Z,99759.00
2022-10-02T02:36:16.986Z,99751.78
2022-10-02T02:38:43.299Z,99760.59
2022-10-02T02:43:35.914Z,99768.50
2022-10-02T02:46:02.357Z,99765.72
2022-10-02T02:48:28.724Z,99766.88
2022-10-02T02:50:55.059Z,99767.31
2022-10-02T02:53:21.420Z,99770.09
2022-10-02T02:55:47.765Z,99764.50
2022-10-02T02:58:14.073Z,99762.50
2022-10-02T03:00:40.442Z,99767.31
2022-10-02T03:03:06.840Z,99759.66
2022-10-02T03:05:33.165Z,99757.28
2022-10-02T03:07:59.461Z,99761.25
2022-10-02T03:10:25.838Z,99764.44
2022-10-02T03:12:53.338Z,99770.44
2022-10-02T03:15:20.537Z,99775.66
2022-10-02T03:17:46.906Z,99774.06
2022-10-02T03:20:13.239Z,99770.88
2022-10-02T03:22:39.575Z,99779.16
2022-10-02T03:25:05.899Z,99770.88
2022-10-02T03:27:35.026Z,99775.59
2022-10-02T03:30:01.651Z,99776.34
2022-10-02T03:32:28.017Z,99774.81
2022-10-02T03:34:54.323Z,99774.44
2022-10-02T03:37:20.660Z,99768.50
2022-10-02T03:39:47.014Z,99776.84
2022-10-02T03:44:39.580Z,99773.78
2022-10-02T03:47:05.927Z,99778.50
2022-10-02T03:49:32.301Z,99784.50
2022-10-02T03:51:58.634Z,99773.78
2022-10-02T03:54:24.990Z,99779.34
2022-10-02T03:56:51.311Z,99783.72
2022-10-02T03:59:18.497Z,99778.56
2022-10-02T04:01:48.926Z,99774.56
2022-10-02T04:04:15.783Z,99778.56
2022-10-02T04:06:42.119Z,99780.59
2022-10-02T04:09:09.332Z,99776.22
2022-10-02T04:11:35.685Z,99788.13
2022-10-02T04:14:02.012Z,99784.56
2022-10-02T04:16:28.411Z,99789.28
2022-10-02T04:18:54.775Z,99783.38
2022-10-02T04:21:21.105Z,99794.50
2022-10-02T04:23:47.458Z,99796.53
2022-10-02T04:26:14.672Z,99793.34
2022-10-02T04:28:41.009Z,99797.72
2022-10-02T04:31:07.388Z,99798.13
2022-10-02T04:33:38.261Z,99798.91
2022-10-02T04:36:04.815Z,99802.91
2022-10-02T04:38:31.132Z,99801.69
2022-10-02T04:40:57.447Z,99793.34
2022-10-02T04:43:23.829Z,99804.13
2022-10-02T04:45:50.207Z,99796.13
2022-10-02T04:48:16.550Z,99805.72
2022-10-02T04:50:42.890Z,99812.06
2022-10-02T04:53:09.218Z,99809.69
2022-10-02T04:55:35.552Z,99808.09
2022-10-02T04:58:01.890Z,99803.34
2022-10-02T05:00:28.265Z,99808.09
2022-10-02T05:02:54.600Z,99812.91
2022-10-02T05:05:20.934Z,99814.91
2022-10-02T05:07:48.142Z,99814.91
2022-10-02T05:10:14.467Z,99817.69
2022-10-02T05:12:40.805Z,99818.47
2022-10-02T05:15:07.138Z,99820.88
2022-10-02T05:17:33.469Z,99821.66
2022-10-02T05:19:59.820Z,99827.22
2022-10-02T05:22:26.209Z,99826.03
2022-10-02T05:24:52.520Z,99830.44
2022-10-02T05:27:18.851Z,99837.59
2022-10-02T05:29:45.191Z,99831.25
2022-10-02T05:32:11.524Z,99830.38
2022-10-02T05:34:37.881Z,99838.25
2022-10-02T05:37:04.219Z,99835.03
2022-10-02T05:39:30.545Z,99839.81
2022-10-02T05:41:56.888Z,99837.16
2022-10-02T05:44:23.230Z,99844.78
2022-10-02T05:46:49.579Z,99844.06
2022-10-02T05:49:15.940Z,99850.81
2022-10-02T05:51:42.294Z,99848.44
2022-10-02T05:54:08.613Z,99853.13
2022-10-02T05:56:35.257Z,99859.94
2022-10-02T05:59:01.789Z,99848.00
2022-10-02T06:01:28.261Z,99861.13
2022-10-02T06:03:54.670Z,99858.34
2022-10-02T06:06:21.924Z,99860.34
2022-10-02T06:08:48.267Z,99860.34
2022-10-02T06:11:15.449Z,99863.13
2022-10-02T06:13:43.341Z,99865.50
2022-10-02T06:16:10.113Z,99859.16
2022-10-02T06:18:36.480Z,99867.84
2022-10-02T06:21:02.778Z,99855.91
2022-10-02T06:23:29.115Z,99867.84
2022-10-02T06:25:55.508Z,99868.63
2022-10-02T06:28:22.249Z,99873.00
2022-10-02T06:30:51.759Z,99871.78
2022-10-02T06:33:18.242Z,99870.22
2022-10-02T06:35:45.439Z,99879.72
2022-10-02T06:38:12.874Z,99880.50
2022-10-02T06:40:39.481Z,99876.94
2022-10-02T06:43:06.097Z,99883.28
2022-10-02T06:45:33.588Z,99885.28
2022-10-02T06:48:02.994Z,99877.72
2022-10-02T06:50:29.693Z,99884.50
2022-10-02T06:52:56.232Z,99884.50
2022-10-02T06:55:22.987Z,99887.28
2022-10-02T06:57:49.598Z,99898.78
2022-10-02T07:00:16.156Z,99885.63
2022-10-02T07:02:42.521Z,99895.56
2022-10-02T07:05:08.868Z,99895.94
2022-10-02T07:07:35.201Z,99902.28
2022-10-02T07:10:01.596Z,99901.09
2022-10-02T07:12:28.007Z,99913.78
2022-10-02T07:14:54.333Z,99905.06
2022-10-02T07:17:22.402Z,99916.56
2022-10-02T07:19:48.872Z,99917.72
2022-10-02T07:22:42.815Z,99914.16
2022-10-02T07:25:02.490Z,99926.09
2022-10-02T07:27:28.817Z,99920.94
2022-10-02T07:29:55.162Z,99922.94
2022-10-02T07:42:06.668Z,99920.56
2022-10-02T07:44:32.988Z,99938.84
2022-10-02T07:46:59.341Z,99931.28
2022-10-02T07:49:25.815Z,99933.66
2022-10-02T07:54:19.723Z,99934.06
2022-10-02T07:59:12.656Z,99939.28
2022-10-02T08:01:39.124Z,99941.69
2022-10-02T08:04:05.596Z,99939.75
2022-10-02T08:06:32.060Z,99940.91
2022-10-02T08:08:58.537Z,99941.69
2022-10-02T08:11:25.013Z,99941.25
2022-10-02T08:13:51.502Z,99942.44
2022-10-02T08:16:18.994Z,99943.22
2022-10-02T08:18:45.481Z,99943.22
2022-10-02T08:23:39.320Z,99948.78
2022-10-02T08:26:07.019Z,99948.34
2022-10-02T08:28:33.787Z,99945.56
2022-10-02T08:31:00.624Z,99953.16
2022-10-02T08:33:28.034Z,99958.72
2022-10-02T08:35:55.417Z,99948.72
2022-10-02T08:38:22.823Z,99956.28
2022-10-02T08:40:50.248Z,99953.50
2022-10-02T08:43:17.649Z,99951.50
2022-10-02T08:45:45.097Z,99955.88
2022-10-02T08:48:11.607Z,99951.09
2022-10-02T08:50:38.059Z,99957.84
2022-10-02T08:53:04.531Z,99954.66
2022-10-02T08:55:31.906Z,99966.16
2022-10-02T08:57:58.351Z,99947.88
2022-10-02T09:00:24.805Z,99961.03
2022-10-02T09:02:52.176Z,99953.03
2022-10-02T09:05:18.647Z,99957.78
2022-10-02T09:07:45.121Z,99961.75
2022-10-02T09:10:11.554Z,99951.75
2022-10-02T09:12:37.987Z,99951.31
2022-10-02T09:15:04.437Z,99952.91
2022-10-02T09:17:30.906Z,99953.75
2022-10-02T09:19:57.503Z,99953.44
2022-10-02T09:22:25.176Z,99955.06
2022-10-02T09:24:51.597Z,99945.56
2022-10-02T09:27:18.969Z,99951.97
2022-10-02T09:29:45.409Z,99951.25
2022-10-02T09:32:11.865Z,99958.84
2022-10-02T09:34:39.175Z,99952.97
2022-10-02T09:37:05.598Z,99954.78
2022-10-02T09:39:33.902Z,99957.09
2022-10-02T09:42:00.386Z,99960.97
2022-10-02T09:44:27.652Z,99961.38
2022-10-02T09:46:54.915Z,99953.84
2022-10-02T09:49:22.181Z,99950.31
2022-10-02T09:51:48.589Z,99951.53
2022-10-02T09:54:16.866Z,99943.47
2022-10-02T09:56:44.096Z,99941.41
2022-10-02T09:59:12.382Z,99938.59
2022-10-02T10:01:40.082Z,99933.53
2022-10-02T10:04:09.031Z,99934.41
2022-10-02T10:06:37.490Z,99928.00
2022-10-02T10:09:04.116Z,99926.47
2022-10-02T10:11:30.475Z,99934.50
2022-10-02T10:13:56.886Z,99922.28
2022-10-02T10:16:26.055Z,99924.69
2022-10-02T10:18:53.291Z,99921.50
2022-10-02T10:21:19.748Z,99922.34
2022-10-02T10:23:46.960Z,99922.03
2022-10-02T10:26:13.403Z,99917.19
2022-10-02T10:28:40.116Z,99915.31
2022-10-02T10:33:33.701Z,99907.72
2022-10-02T10:36:00.095Z,99918.44
2022-10-02T10:38:31.972Z,99902.16
2022-10-02T10:40:58.302Z,99907.84
2022-10-02T10:43:25.511Z,99907.50
2022-10-02T10:45:52.714Z,99903.56
2022-10-02T10:48:20.094Z,99903.63
2022-10-02T10:50:46.414Z,99905.59
2022-10-02T10:53:12.755Z,99908.31
2022-10-02T10:55:39.098Z,99914.72
2022-10-02T10:58:05.450Z,99925.44
2022-10-02T11:00:31.780Z,99923.59
2022-10-02T11:02:58.120Z,99932.41
2022-10-02T11:05:24.522Z,99938.81
2022-10-02T11:07:50.870Z,99943.66
2022-10-02T11:10:17.205Z,99934.03
2022-10-02T11:12:44.412Z,99937.22
2022-10-02T11:15:10.751Z,99931.66
2022-10-02T11:17:37.124Z,99922.59
2022-10-02T11:20:03.452Z,99920.94
2022-10-02T11:22:29.794Z,99923.72
2022-10-02T11:24:56.075Z,99929.63
2022-10-02T11:27:22.583Z,99923.31
2022-10-02T11:29:48.929Z,99923.38
2022-10-02T11:32:15.282Z,99928.03
2022-10-02T11:34:41.624Z,99925.31
2022-10-02T11:37:07.953Z,99924.53
2022-10-02T11:39:34.276Z,99920.59
2022-10-02T11:42:00.605Z,99921.06
2022-10-02T11:44:26.947Z,99912.34
2022-10-02T11:46:53.275Z,99914.41
2022-10-02T11:49:20.648Z,99914.34
2022-10-02T11:51:46.995Z,99916.72
2022-10-02T11:54:13.297Z,99915.50
2022-10-02T11:56:39.645Z,99914.28
2022-10-02T11:59:05.986Z,99911.22
2022-10-02T12:01:32.325Z,99904.84
2022-10-02T12:03:59.510Z,99912.41
2022-10-02T12:06:25.875Z,99914.00
2022-10-02T12:08:52.202Z,99912.03
2022-10-02T12:11:19.411Z,99909.28
2022-10-02T12:13:45.783Z,99914.53
2022-10-02T12:16:12.161Z,99914.91
2022-10-02T12:18:38.565Z,99915.63
2022-10-02T12:21:04.898Z,99924.81
2022-10-02T12:23:31.420Z,99916.84
2022-10-02T12:25:57.754Z,99918.03
2022-10-02T12:28:24.134Z,99908.56
2022-10-02T12:30:50.497Z,99908.16
2022-10-02T12:33:16.870Z,99908.97
2022-10-02T12:35:43.236Z,99916.50
2022-10-02T12:38:10.471Z,99903.47
2022-10-02T12:40:36.843Z,99899.88
2022-10-02T12:43:03.155Z,99899.09
2022-10-02T12:45:29.517Z,99904.28
2022-10-02T12:47:55.871Z,99900.69
2022-10-02T12:50:22.202Z,99902.34
2022-10-02T12:52:49.408Z,99899.63
2022-10-02T12:55:15.740Z,99902.41
2022-10-02T12:57:42.096Z,99899.25
2022-10-02T13:00:08.431Z,99896.53
2022-10-02T13:02:59.079Z,99892.50
2022-10-02T13:05:21.304Z,99896.09
2022-10-02T13:07:47.835Z,99889.31
2022-10-02T13:10:14.167Z,99894.09
2022-10-02T13:12:40.503Z,99885.75
2022-10-02T13:15:06.821Z,99887.75
2022-10-02T13:17:33.133Z,99884.16
2022-10-02T13:19:59.460Z,99888.94
2022-10-02T13:22:25.790Z,99879.84
2022-10-02T13:24:52.145Z,99879.03
2022-10-02T13:27:18.464Z,99885.41
2022-10-02T13:29:44.779Z,99884.59
2022-10-02T13:32:11.125Z,99885.81
2022-10-02T13:34:38.641Z,99878.72
2022-10-02T13:37:05.132Z,99883.09
2022-10-02T13:39:31.455Z,99890.63
2022-10-02T13:41:57.779Z,99887.84
2022-10-02T13:44:24.131Z,99884.28
2022-10-02T13:46:51.360Z,99884.69
2022-10-02T13:49:18.570Z,99883.50
2022-10-02T13:51:44.949Z,99885.06
2022-10-02T13:54:12.317Z,99886.28
2022-10-02T13:56:38.656Z,99893.41
2022-10-02T13:59:05.887Z,99880.72
2022-10-02T14:01:32.307Z,99883.91
2022-10-02T14:03:58.722Z,99884.69
2022-10-02T14:06:25.110Z,99884.69
2022-10-02T14:08:51.474Z,99880.34
2022-10-02T14:11:18.798Z,99876.34
2022-10-02T14:13:45.106Z,99869.63
2022-10-02T14:16:11.533Z,99873.97
2022-10-02T14:18:37.867Z,99870.41
2022-10-02T14:21:06.092Z,99864.84
2022-10-02T14:23:32.434Z,99864.84
2022-10-02T14:25:58.763Z,99869.28
2022-10-02T14:28:26.080Z,99874.44
2022-10-02T14:30:52.478Z,99865.69
2022-10-02T14:33:18.956Z,99860.53
2022-10-02T14:35:45.291Z,99863.72
2022-10-02T14:38:12.494Z,99863.28
2022-10-02T14:40:41.646Z,99860.94
2022-10-02T14:43:07.996Z,99863.72
2022-10-02T14:45:34.383Z,99872.84
2022-10-02T14:48:00.725Z,99864.13
2022-10-02T14:50:27.073Z,99857.34
2022-10-02T14:52:53.375Z,99858.56
2022-10-02T14:55:19.893Z,99853.00
2022-10-02T14:57:46.224Z,99861.34
2022-10-02T15:00:12.541Z,99857.41
2022-10-02T15:02:38.915Z,99853.06
2022-10-02T15:05:05.255Z,99855.84
2022-10-02T15:07:31.563Z,99859.03
2022-10-02T15:09:57.883Z,99849.88
2022-10-02T15:12:24.277Z,99849.88
2022-10-02T15:14:50.604Z,99849.53
2022-10-02T15:17:17.029Z,99850.31
2022-10-02T15:19:46.544Z,99851.53
2022-10-02T15:22:16.929Z,99856.31
2022-10-02T15:24:43.286Z,99849.53
2022-10-02T15:27:09.658Z,99850.75
2022-10-02T15:29:36.953Z,99857.50
2022-10-02T15:32:04.283Z,99865.41
2022-10-02T15:34:30.745Z,99863.84
2022-10-02T15:36:57.121Z,99864.28
2022-10-02T15:39:24.313Z,99861.50
2022-10-02T15:41:50.668Z,99863.47
2022-10-02T15:44:17.016Z,99857.53
2022-10-02T15:46:43.533Z,99859.53
2022-10-02T15:49:09.869Z,99858.75
2022-10-02T15:51:36.210Z,99864.28
2022-10-02T15:54:03.405Z,99863.16
2022-10-02T15:56:29.718Z,99857.59
2022-10-02T15:58:56.020Z,99867.94
2022-10-02T16:01:22.336Z,99869.13
2022-10-02T16:03:48.685Z,99872.69
2022-10-02T16:06:15.061Z,99876.31
2022-10-02T16:08:41.954Z,99874.31
2022-10-02T16:11:09.197Z,99882.28
2022-10-02T16:13:35.589Z,99886.22
2022-10-02T16:16:02.007Z,99882.66
2022-10-02T16:18:29.221Z,99875.94
2022-10-02T16:20:55.599Z,99879.94
2022-10-02T16:23:22.083Z,99875.56
2022-10-02T16:25:51.409Z,99874.78
2022-10-02T16:28:18.087Z,99877.19
2022-10-02T16:30:44.548Z,99876.00
2022-10-02T16:33:11.008Z,99876.38
2022-10-02T16:35:41.393Z,99872.38
2022-10-02T16:38:09.985Z,99875.00
2022-10-02T16:40:36.510Z,99865.75
2022-10-02T16:43:03.077Z,99870.41
2022-10-02T16:45:29.487Z,99868.38
2022-10-02T16:47:55.822Z,99866.34
2022-10-02T16:50:22.185Z,99866.22
2022-10-02T16:52:48.536Z,99872.94
2022-10-02T16:55:14.954Z,99866.19
2022-10-02T16:57:41.419Z,99866.13
2022-10-02T17:00:07.844Z,99856.53
2022-10-02T17:02:34.301Z,99858.84
2022-10-02T17:05:00.671Z,99861.97
2022-10-02T17:07:27.008Z,99854.00
2022-10-02T17:09:53.337Z,99858.75
2022-10-02T17:12:19.680Z,99858.34
2022-10-02T17:14:46.340Z,99861.47
2022-10-02T17:17:12.702Z,99861.47
2022-10-02T17:19:39.301Z,99859.47
2022-10-02T17:22:05.771Z,99860.16
2022-10-02T17:24:32.170Z,99866.56
2022-10-02T17:26:58.827Z,99864.94
2022-10-02T17:29:25.368Z,99865.28
2022-10-02T17:31:51.823Z,99867.91
2022-10-02T17:34:18.332Z,99860.38
2022-10-02T17:36:44.663Z,99859.41
2022-10-02T17:39:11.022Z,99867.66
2022-10-02T17:41:37.368Z,99866.72
2022-10-02T17:44:03.693Z,99869.38
2022-10-02T17:46:29.998Z,99867.63
2022-10-02T17:48:56.372Z,99860.81
2022-10-02T17:51:51.223Z,99858.72
2022-10-02T17:54:09.310Z,99860.25
2022-10-02T17:56:35.638Z,99858.22
2022-10-02T17:59:01.936Z,99862.94
2022-10-02T18:01:28.660Z,99855.66
2022-10-02T18:03:55.297Z,99851.22
2022-10-02T18:06:21.727Z,99850.44
2022-10-02T18:08:48.090Z,99848.66
2022-10-02T18:11:14.430Z,99850.38
2022-10-02T18:13:41.292Z,99849.81
2022-10-02T18:16:07.909Z,99843.72
2022-10-02T18:18:34.346Z,99842.28
2022-10-02T18:21:00.781Z,99835.47
2022-10-02T18:23:27.168Z,99842.06
2022-10-02T18:25:53.820Z,99852.34
2022-10-02T18:28:21.483Z,99844.16
2022-10-02T18:30:47.955Z,99850.44
2022-10-02T18:33:15.556Z,99843.66
2022-10-02T18:35:42.132Z,99845.34
2022-10-02T18:38:08.555Z,99844.22
2022-10-02T18:40:34.919Z,99843.78
2022-10-02T18:43:01.571Z,99843.16
2022-10-02T18:45:28.019Z,99847.22
2022-10-02T18:47:54.792Z,99850.72
2022-10-02T18:50:22.092Z,99853.50
2022-10-02T18:52:48.526Z,99853.94
2022-10-02T18:55:15.158Z,99850.38
2022-10-02T18:57:41.580Z,99853.59
2022-10-02T19:00:08.212Z,99846.50
2022-10-02T19:02:35.142Z,99844.16
2022-10-02T19:05:01.613Z,99852.59
2022-10-02T19:07:27.989Z,99849.72
2022-10-02T19:09:54.349Z,99843.44
2022-10-02T19:12:20.859Z,99849.78
2022-10-02T19:14:47.282Z,99839.41
2022-10-02T19:17:13.826Z,99841.34
2022-10-02T19:19:40.263Z,99836.28
2022-10-02T19:22:06.603Z,99836.72
2022-10-02T19:24:32.921Z,99841.94
2022-10-02T19:26:59.256Z,99858.16
2022-10-02T19:29:25.591Z,99857.03
2022-10-02T19:31:52.013Z,99862.94
2022-10-02T19:34:19.390Z,99860.09
2022-10-02T19:36:45.877Z,99857.66
2022-10-02T19:39:12.244Z,99864.88
2022-10-02T19:41:38.802Z,99856.53
2022-10-02T19:44:05.286Z,99856.00
2022-10-02T19:46:31.628Z,99865.16
2022-10-02T19:48:57.963Z,99856.00
2022-10-02T19:51:24.321Z,99850.00
2022-10-02T19:53:50.673Z,99846.78
2022-10-02T19:56:17.004Z,99848.88
2022-10-02T19:58:43.355Z,99846.44
2022-10-02T20:01:09.748Z,99844.41
2022-10-02T20:03:36.147Z,99852.09
2022-10-02T20:06:02.488Z,99856.53
2022-10-02T20:08:28.828Z,99854.59
2022-10-02T20:10:55.168Z,99846.50
2022-10-02T20:13:21.570Z,99849.38
2022-10-02T20:15:47.917Z,99847.78
2022-10-02T20:18:14.713Z,99839.00
2022-10-02T20:20:41.096Z,99845.72
2022-10-02T20:23:07.428Z,99843.44
2022-10-02T20:25:33.753Z,99846.31
2022-10-02T20:28:00.171Z,99837.13
2022-10-02T20:30:26.562Z,99841.94
2022-10-02T20:32:52.954Z,99840.47
2022-10-02T20:35:19.263Z,99847.97
2022-10-02T20:37:45.578Z,99848.34
2022-10-02T20:40:12.001Z,99854.81
2022-10-02T20:42:38.306Z,99858.00
2022-10-02T20:45:04.686Z,99840.69
2022-10-02T20:47:30.979Z,99842.25
2022-10-02T20:49:57.270Z,99843.50
2022-10-02T20:52:23.582Z,99836.63
2022-10-02T20:54:49.893Z,99843.78
2022-10-02T20:57:16.229Z,99848.13
2022-10-02T20:59:42.557Z,99850.50
2022-10-02T21:02:08.966Z,99846.78
2022-10-02T21:04:35.319Z,99853.13
2022-10-02T21:07:06.730Z,99850.06
2022-10-02T21:09:33.448Z,99854.91
2022-10-02T21:11:59.769Z,99844.84
2022-10-02T21:14:26.101Z,99851.81
2022-10-02T21:16:54.453Z,99845.16
2022-10-02T21:19:20.947Z,99845.56
2022-10-02T21:21:50.450Z,99847.28
2022-10-02T21:24:21.344Z,99838.00
2022-10-02T21:26:48.571Z,99834.91
2022-10-02T21:29:15.837Z,99836.16
2022-10-02T21:31:42.167Z,99837.72
2022-10-02T21:34:08.498Z,99827.78
2022-10-02T21:36:35.128Z,99830.63
2022-10-02T21:39:01.770Z,99842.19
2022-10-02T21:41:28.104Z,99838.16
2022-10-02T21:43:54.432Z,99835.47
2022-10-02T21:46:20.801Z,99831.47
2022-10-02T21:48:47.182Z,99834.25
2022-10-02T21:51:13.530Z,99833.41
2022-10-02T21:53:39.873Z,99842.25
2022-10-02T21:56:06.223Z,99836.69
2022-10-02T21:58:32.541Z,99837.88
2022-10-02T22:00:58.907Z,99836.69
2022-10-02T22:03:25.242Z,99836.75
2022-10-02T22:05:51.671Z,99843.19
2022-10-02T22:08:18.109Z,99840.09
2022-10-02T22:10:47.194Z,99839.22
2022-10-02T22:13:13.519Z,99849.25
2022-10-02T22:15:39.866Z,99841.72
2022-10-02T22:18:06.315Z,99839.75
2022-10-02T22:20:32.596Z,99840.53
2022-10-02T22:22:58.936Z,99837.75
2022-10-02T22:25:25.262Z,99837.00
2022-10-02T22:27:51.604Z,99837.88
2022-10-02T22:30:17.983Z,99837.88
2022-10-02T22:32:47.089Z,99828.72
2022-10-02T22:35:13.532Z,99838.31
2022-10-02T22:37:42.619Z,99831.56
2022-10-02T22:40:08.949Z,99830.44
2022-10-02T22:42:35.270Z,99833.56
2022-10-02T22:45:01.582Z,99833.22
2022-10-02T22:47:27.903Z,99837.28
2022-10-02T22:49:54.211Z,99827.84
2022-10-02T22:52:20.531Z,99830.75
2022-10-02T22:54:46.832Z,99831.13
2022-10-02T22:57:13.152Z,99834.31
2022-10-02T22:59:39.444Z,99830.31
2022-10-02T23:02:06.011Z,99839.41
2022-10-02T23:04:32.429Z,99836.63
2022-10-02T23:06:58.763Z,99833.91
2022-10-02T23:09:25.076Z,99835.88
2022-10-02T23:11:51.379Z,99826.75
2022-10-02T23:14:17.742Z,99832.31
2022-10-02T23:16:44.047Z,99826.41
2022-10-02T23:19:10.525Z,99831.19
2022-10-02T23:21:38.398Z,99833.16
2022-10-02T23:24:06.283Z,99838.72
2022-10-02T23:26:32.594Z,99834.03
2022-10-02T23:28:58.905Z,99840.78
2022-10-02T23:31:25.253Z,99839.22
2022-10-02T23:33:51.608Z,99841.22
2022-10-02T23:36:17.951Z,99834.88
2022-10-02T23:38:44.247Z,99841.28
2022-10-02T23:41:10.576Z,99850.81
2022-10-02T23:43:36.869Z,99843.22
2022-10-02T23:46:03.247Z,99839.66
2022-10-02T23:48:29.606Z,99843.66
2022-10-02T23:50:55.925Z,99844.84
2022-10-02T23:53:22.247Z,99847.19
2022-10-02T23:55:48.520Z,99844.84
2022-10-02T23:58:14.857Z,99839.28
